Terminal Aerodrome Forecast
Issued by NWS

Home | Current Version | Previous Version | Text Only | Print | Product List | Glossary On
Versions: 1 2 3 4 5 6 7 8 9 10 11 12 13 14
000
FTUS45 KSLC 222335
TAFENV
TAF
KENV 222335Z 2300/2324 08006KT P6SM FEW070 SCT150
     FM230100 30007KT P6SM SCT070
     FM230700 VRB04KT P6SM SCT050
     FM231600 05007KT P6SM FEW050=

USA.gov is the U.S. government's official web portal to all federal, state and local government web resources and services.